createdAt,value
2023-01-10T00:00:04.133Z,1004.84
2023-01-10T00:01:04.265Z,1004.93
2023-01-10T00:02:05.128Z,1004.95
2023-01-10T00:03:04.591Z,1004.96
2023-01-10T00:04:04.727Z,1004.94
2023-01-10T00:05:04.833Z,1005.00
2023-01-10T00:06:04.954Z,1004.92
2023-01-10T00:07:05.092Z,1004.93
2023-01-10T00:08:05.170Z,1004.98
2023-01-10T00:09:05.336Z,1004.96
2023-01-10T00:10:05.459Z,1005.05
2023-01-10T00:11:05.578Z,1004.98
2023-01-10T00:12:05.714Z,1005.03
2023-01-10T00:13:05.832Z,1005.03
2023-01-10T00:14:05.952Z,1005.12
2023-01-10T00:15:06.054Z,1005.13
2023-01-10T00:16:06.213Z,1005.19
2023-01-10T00:17:06.362Z,1005.23
2023-01-10T00:18:06.501Z,1005.30
2023-01-10T00:19:06.617Z,1005.32
2023-01-10T00:20:06.739Z,1005.33
2023-01-10T00:21:06.872Z,1005.27
2023-01-10T00:22:07.040Z,1005.24
2023-01-10T00:23:07.219Z,1005.35
2023-01-10T00:24:07.346Z,1005.38
2023-01-10T00:25:07.467Z,1005.40
2023-01-10T00:26:07.590Z,1005.38
2023-01-10T00:27:07.714Z,1005.40
2023-01-10T00:28:07.845Z,1005.40
2023-01-10T00:29:07.976Z,1005.44
2023-01-10T00:30:08.087Z,1005.49
2023-01-10T00:31:08.270Z,1005.50
2023-01-10T00:32:08.313Z,1005.45
2023-01-10T00:33:08.440Z,1005.45
2023-01-10T00:34:08.567Z,1005.53
2023-01-10T00:35:08.687Z,1005.52
2023-01-10T00:36:08.810Z,1005.65
2023-01-10T00:37:08.929Z,1005.71
2023-01-10T00:38:09.039Z,1005.73
2023-01-10T00:39:09.176Z,1005.73
2023-01-10T00:40:09.329Z,1005.76
2023-01-10T00:41:09.464Z,1005.69
2023-01-10T00:42:09.605Z,1005.71
2023-01-10T00:43:09.725Z,1005.75
2023-01-10T00:44:09.864Z,1005.75
2023-01-10T00:45:10.039Z,1005.72
2023-01-10T00:46:10.150Z,1005.78
2023-01-10T00:47:10.211Z,1005.83
2023-01-10T00:48:10.323Z,1005.81
2023-01-10T00:49:10.466Z,1005.81
2023-01-10T00:50:10.613Z,1005.78
2023-01-10T00:51:10.732Z,1005.82
2023-01-10T00:52:10.832Z,1005.88
2023-01-10T00:53:11.025Z,1005.84
2023-01-10T00:54:11.139Z,1005.91
2023-01-10T00:55:11.264Z,1005.89
2023-01-10T00:56:11.400Z,1005.93
2023-01-10T00:57:11.521Z,1005.94
2023-01-10T00:58:11.753Z,1006.05
2023-01-10T00:59:11.851Z,1005.95
2023-01-10T01:00:11.987Z,1006.06
2023-01-10T01:01:12.200Z,1006.03
2023-01-10T01:02:12.231Z,1006.01
2023-01-10T01:03:12.410Z,1006.06
2023-01-10T01:04:12.517Z,1006.06
2023-01-10T01:05:12.677Z,1006.13
2023-01-10T01:06:12.808Z,1006.16
2023-01-10T01:07:12.911Z,1006.20
2023-01-10T01:08:13.030Z,1006.21
2023-01-10T01:09:13.149Z,1006.20
2023-01-10T01:10:13.347Z,1006.24
2023-01-10T01:11:13.398Z,1006.27
2023-01-10T01:12:13.503Z,1006.29
2023-01-10T01:13:13.633Z,1006.38
2023-01-10T01:14:13.748Z,1006.45
2023-01-10T01:15:13.874Z,1006.48
2023-01-10T01:16:14.016Z,1006.49
2023-01-10T01:17:14.119Z,1006.48
2023-01-10T01:18:14.252Z,1006.51
2023-01-10T01:19:14.371Z,1006.60
2023-01-10T01:20:14.501Z,1006.57
2023-01-10T01:21:14.630Z,1006.61
2023-01-10T01:22:14.775Z,1006.59
2023-01-10T01:23:14.891Z,1006.65
2023-01-10T01:24:15.010Z,1006.70
2023-01-10T01:25:15.139Z,1006.67
2023-01-10T01:26:15.259Z,1006.77
2023-01-10T01:27:15.404Z,1006.76
2023-01-10T01:28:15.559Z,1006.71
2023-01-10T01:29:17.341Z,1006.70
2023-01-10T01:30:15.767Z,1006.75
2023-01-10T01:31:15.925Z,1006.72
2023-01-10T01:32:16.080Z,1006.78
2023-01-10T01:33:16.181Z,1006.81
2023-01-10T01:34:16.337Z,1006.82
2023-01-10T01:35:16.460Z,1006.85
2023-01-10T01:36:16.595Z,1006.82
2023-01-10T01:37:17.013Z,1006.79
2023-01-10T01:38:16.818Z,1006.83
2023-01-10T01:39:16.927Z,1006.88
2023-01-10T01:40:17.057Z,1006.92
2023-01-10T01:41:17.187Z,1006.94
2023-01-10T01:42:17.338Z,1006.92
2023-01-10T01:43:17.484Z,1006.95
2023-01-10T01:44:17.661Z,1006.90
2023-01-10T01:45:17.787Z,1006.89
2023-01-10T01:46:17.945Z,1006.99
2023-01-10T01:47:18.070Z,1006.97
2023-01-10T01:48:18.211Z,1006.94
2023-01-10T01:49:18.320Z,1006.98
2023-01-10T01:50:18.426Z,1007.04
2023-01-10T01:51:18.580Z,1007.06
2023-01-10T01:52:18.695Z,1007.02
2023-01-10T01:53:18.879Z,1007.08
2023-01-10T01:54:19.019Z,1007.04
2023-01-10T01:55:19.166Z,1007.10
2023-01-10T01:56:19.273Z,1007.09
2023-01-10T01:57:19.420Z,1007.12
2023-01-10T01:58:19.575Z,1007.13
2023-01-10T01:59:19.713Z,1007.06
2023-01-10T02:00:19.833Z,1007.11
2023-01-10T02:01:20.064Z,1007.16
2023-01-10T02:02:20.237Z,1007.12
2023-01-10T02:03:20.273Z,1007.21
2023-01-10T02:04:20.431Z,1007.18
2023-01-10T02:05:20.474Z,1007.15
2023-01-10T02:06:20.584Z,1007.19
2023-01-10T02:07:20.730Z,1007.21
2023-01-10T02:08:20.866Z,1007.17
2023-01-10T02:09:20.999Z,1007.19
2023-01-10T02:10:21.130Z,1007.25
2023-01-10T02:11:21.283Z,1007.30
2023-01-10T02:12:21.415Z,1007.28
2023-01-10T02:13:21.586Z,1007.29
2023-01-10T02:14:21.684Z,1007.34
2023-01-10T02:15:21.816Z,1007.23
2023-01-10T02:16:21.986Z,1007.27
2023-01-10T02:17:22.099Z,1007.26
2023-01-10T02:18:22.206Z,1007.29
2023-01-10T02:19:22.333Z,1007.29
2023-01-10T02:20:22.455Z,1007.29
2023-01-10T02:21:22.634Z,1007.22
2023-01-10T02:22:23.943Z,1007.30
2023-01-10T02:23:22.954Z,1007.27
2023-01-10T02:24:23.079Z,1007.31
2023-01-10T02:25:23.183Z,1007.35
2023-01-10T02:26:29.882Z,1007.36
2023-01-10T02:27:23.443Z,1007.34
2023-01-10T02:28:23.581Z,1007.46
2023-01-10T02:29:23.707Z,1007.42
2023-01-10T02:30:23.858Z,1007.42
2023-01-10T02:31:23.998Z,1007.46
2023-01-10T02:32:40.657Z,1007.45
2023-01-10T02:33:25.261Z,1007.39
2023-01-10T02:34:24.362Z,1007.42
2023-01-10T02:35:24.494Z,1007.41
2023-01-10T02:36:24.617Z,1007.48
2023-01-10T02:37:24.734Z,1007.43
2023-01-10T02:38:24.848Z,1007.36
2023-01-10T02:39:24.963Z,1007.35
2023-01-10T02:40:25.083Z,1007.42
2023-01-10T02:41:25.207Z,1007.37
2023-01-10T02:42:25.338Z,1007.40
2023-01-10T02:43:25.484Z,1007.33
2023-01-10T02:44:25.603Z,1007.32
2023-01-10T02:45:25.709Z,1007.38
2023-01-10T02:46:25.903Z,1007.33
2023-01-10T02:47:26.011Z,1007.43
2023-01-10T02:48:26.146Z,1007.43
2023-01-10T02:49:26.251Z,1007.45
2023-01-10T02:50:26.393Z,1007.45
2023-01-10T02:51:26.539Z,1007.42
2023-01-10T02:52:26.702Z,1007.35
2023-01-10T02:53:26.822Z,1007.43
2023-01-10T02:54:26.938Z,1007.44
2023-01-10T02:55:27.060Z,1007.51
2023-01-10T02:56:27.188Z,1007.57
2023-01-10T02:57:27.339Z,1007.51
2023-01-10T02:58:27.467Z,1007.52
2023-01-10T02:59:27.590Z,1007.50
2023-01-10T03:00:27.721Z,1007.55
2023-01-10T03:01:27.946Z,1007.63
2023-01-10T03:02:28.080Z,1007.53
2023-01-10T03:03:28.198Z,1007.62
2023-01-10T03:04:28.362Z,1007.60
2023-01-10T03:05:28.409Z,1007.60
2023-01-10T03:06:28.600Z,1007.70
2023-01-10T03:07:28.712Z,1007.63
2023-01-10T03:08:28.836Z,1007.69
2023-01-10T03:09:28.950Z,1007.77
2023-01-10T03:10:29.098Z,1007.69
2023-01-10T03:11:29.178Z,1007.74
2023-01-10T03:12:29.307Z,1007.83
2023-01-10T03:13:29.424Z,1007.77
2023-01-10T03:14:29.565Z,1007.67
2023-01-10T03:15:29.696Z,1007.79
2023-01-10T03:16:29.819Z,1007.79
2023-01-10T03:17:29.987Z,1007.79
2023-01-10T03:18:30.110Z,1007.82
2023-01-10T03:19:30.287Z,1007.83
2023-01-10T03:20:30.409Z,1007.76
2023-01-10T03:21:30.625Z,1007.81
2023-01-10T03:22:30.675Z,1007.92
2023-01-10T03:23:30.786Z,1007.83
2023-01-10T03:24:30.906Z,1007.89
2023-01-10T03:25:31.036Z,1007.94
2023-01-10T03:26:31.184Z,1007.93
2023-01-10T03:27:31.292Z,1007.94
2023-01-10T03:28:31.404Z,1007.99
2023-01-10T03:29:31.541Z,1007.96
2023-01-10T03:30:31.780Z,1008.00
2023-01-10T03:31:31.815Z,1008.07
2023-01-10T03:32:31.924Z,1008.08
2023-01-10T03:33:32.045Z,1008.04
2023-01-10T03:34:32.168Z,1008.13
2023-01-10T03:35:32.284Z,1008.15
2023-01-10T03:36:32.415Z,1008.13
2023-01-10T03:37:32.549Z,1008.18
2023-01-10T03:38:32.685Z,1008.19
2023-01-10T03:39:32.814Z,1008.26
2023-01-10T03:40:32.958Z,1008.30
2023-01-10T03:41:33.104Z,1008.28
2023-01-10T03:42:33.231Z,1008.32
2023-01-10T03:43:33.386Z,1008.29
2023-01-10T03:44:33.515Z,1008.31
2023-01-10T03:45:33.641Z,1008.32
2023-01-10T03:46:33.788Z,1008.28
2023-01-10T03:47:33.878Z,1008.32
2023-01-10T03:48:34.007Z,1008.29
2023-01-10T03:49:34.113Z,1008.26
2023-01-10T03:50:34.233Z,1008.29
2023-01-10T03:51:34.374Z,1008.36
2023-01-10T03:52:34.525Z,1008.35
2023-01-10T03:53:34.642Z,1008.35
2023-01-10T03:54:34.766Z,1008.37
2023-01-10T03:55:34.921Z,1008.37
2023-01-10T03:56:35.076Z,1008.38
2023-01-10T03:57:35.213Z,1008.38
2023-01-10T03:58:35.359Z,1008.35
2023-01-10T03:59:35.521Z,1008.34
2023-01-10T04:00:35.630Z,1008.41
2023-01-10T04:01:35.866Z,1008.44
2023-01-10T04:02:35.937Z,1008.45
2023-01-10T04:03:36.020Z,1008.35
2023-01-10T04:04:36.148Z,1008.33
2023-01-10T04:05:36.249Z,1008.41
2023-01-10T04:06:36.374Z,1008.48
2023-01-10T04:07:36.507Z,1008.44
2023-01-10T04:08:36.635Z,1008.44
2023-01-10T04:09:36.765Z,1008.48
2023-01-10T04:10:36.913Z,1008.50
2023-01-10T04:11:37.019Z,1008.51
2023-01-10T04:12:37.159Z,1008.53
2023-01-10T04:13:37.315Z,1008.54
2023-01-10T04:14:37.438Z,1008.56
2023-01-10T04:15:37.611Z,1008.64
2023-01-10T04:16:37.773Z,1008.59
2023-01-10T04:17:37.801Z,1008.58
2023-01-10T04:18:37.979Z,1008.62
2023-01-10T04:19:38.120Z,1008.60
2023-01-10T04:20:38.278Z,1008.66
2023-01-10T04:21:38.379Z,1008.72
2023-01-10T04:22:38.510Z,1008.72
2023-01-10T04:23:38.619Z,1008.76
2023-01-10T04:24:38.740Z,1008.75
2023-01-10T04:25:38.849Z,1008.70
2023-01-10T04:26:38.990Z,1008.73
2023-01-10T04:27:39.087Z,1008.77
2023-01-10T04:28:39.208Z,1008.72
2023-01-10T04:29:39.344Z,1008.87
2023-01-10T04:30:39.458Z,1008.78
2023-01-10T04:31:39.592Z,1008.77
2023-01-10T04:32:39.708Z,1008.84
2023-01-10T04:33:39.869Z,1008.86
2023-01-10T04:34:40.002Z,1008.92
2023-01-10T04:35:40.268Z,1008.84
2023-01-10T04:36:40.296Z,1008.85
2023-01-10T04:37:40.411Z,1008.89
2023-01-10T04:38:40.567Z,1008.85
2023-01-10T04:39:40.789Z,1008.88
2023-01-10T04:40:40.805Z,1008.88
2023-01-10T04:41:40.926Z,1008.83
2023-01-10T04:42:41.099Z,1008.84
2023-01-10T04:43:41.216Z,1008.86
2023-01-10T04:44:41.326Z,1008.81
2023-01-10T04:45:41.521Z,1008.78
2023-01-10T04:46:48.152Z,1008.86
2023-01-10T04:47:41.713Z,1008.78
2023-01-10T04:48:41.845Z,1008.84
2023-01-10T04:49:41.977Z,1008.81
2023-01-10T04:50:42.137Z,1008.87
2023-01-10T04:51:42.249Z,1008.89
2023-01-10T04:52:42.354Z,1008.90
2023-01-10T04:53:42.503Z,1008.88
2023-01-10T04:54:42.663Z,1008.92
2023-01-10T04:55:42.802Z,1008.99
2023-01-10T04:56:42.922Z,1009.01
2023-01-10T04:57:43.047Z,1009.03
2023-01-10T04:58:43.167Z,1008.95
2023-01-10T04:59:43.295Z,1009.03
2023-01-10T05:00:43.415Z,1009.00
2023-01-10T05:01:43.620Z,1009.00
2023-01-10T05:02:43.877Z,1008.98
2023-01-10T05:03:43.770Z,1009.00
2023-01-10T05:04:43.893Z,1009.05
2023-01-10T05:05:44.004Z,1008.95
2023-01-10T05:06:44.144Z,1009.05
2023-01-10T05:07:44.313Z,1008.99
2023-01-10T05:08:44.751Z,1009.07
2023-01-10T05:09:44.585Z,1009.06
2023-01-10T05:10:44.726Z,1009.05
2023-01-10T05:11:44.840Z,1009.14
2023-01-10T05:12:45.079Z,1009.13
2023-01-10T05:13:47.150Z,1009.17
2023-01-10T05:14:45.262Z,1009.17
2023-01-10T05:15:45.438Z,1009.18
2023-01-10T05:16:45.588Z,1009.17
2023-01-10T05:17:45.696Z,1009.14
2023-01-10T05:18:45.825Z,1009.20
2023-01-10T05:19:45.936Z,1009.16
2023-01-10T05:20:46.066Z,1009.21
2023-01-10T05:21:46.182Z,1009.25
2023-01-10T05:22:46.339Z,1009.26
2023-01-10T05:23:46.501Z,1009.36
2023-01-10T05:24:46.632Z,1009.35
2023-01-10T05:25:46.769Z,1009.27
2023-01-10T05:26:46.914Z,1009.30
2023-01-10T05:27:47.063Z,1009.35
2023-01-10T05:28:47.220Z,1009.46
2023-01-10T05:29:47.401Z,1009.42
2023-01-10T05:32:01.781Z,1009.47
2023-01-10T05:33:01.613Z,1009.51
2023-01-10T05:34:01.732Z,1009.58
2023-01-10T05:35:01.886Z,1009.57
2023-01-10T05:36:01.995Z,1009.59
2023-01-10T05:37:02.257Z,1009.57
2023-01-10T05:38:02.252Z,1009.52
2023-01-10T05:39:02.388Z,1009.59
2023-01-10T05:40:02.512Z,1009.63
2023-01-10T05:41:02.637Z,1009.62
2023-01-10T05:42:02.764Z,1009.64
2023-01-10T05:43:02.870Z,1009.71
2023-01-10T05:44:02.991Z,1009.67
2023-01-10T05:45:03.122Z,1009.76
2023-01-10T05:46:03.286Z,1009.65
2023-01-10T05:47:03.418Z,1009.73
2023-01-10T05:48:03.539Z,1009.76
2023-01-10T05:49:03.662Z,1009.73
2023-01-10T05:50:03.771Z,1009.76
2023-01-10T05:51:04.162Z,1009.79
2023-01-10T05:52:04.123Z,1009.79
2023-01-10T05:53:04.286Z,1009.84
2023-01-10T05:54:04.378Z,1009.83
2023-01-10T05:55:04.588Z,1009.88
2023-01-10T05:56:04.747Z,1009.97
2023-01-10T05:57:04.912Z,1009.89
2023-01-10T05:58:04.996Z,1009.91
2023-01-10T05:59:09.631Z,1009.88
2023-01-10T06:00:06.268Z,1009.93
2023-01-10T06:01:05.495Z,1009.97
2023-01-10T06:02:05.648Z,1009.92
2023-01-10T06:03:05.680Z,1009.94
2023-01-10T06:04:05.798Z,1009.99
2023-01-10T06:05:05.977Z,1010.00
2023-01-10T06:06:06.109Z,1010.05
2023-01-10T06:07:06.246Z,1009.94
2023-01-10T06:08:06.371Z,1009.98
2023-01-10T06:09:06.506Z,1010.01
2023-01-10T06:10:06.619Z,1010.04
2023-01-10T06:11:06.741Z,1009.99
2023-01-10T06:12:06.874Z,1010.01
2023-01-10T06:13:06.989Z,1010.02
2023-01-10T06:14:07.119Z,1010.04
2023-01-10T06:15:07.266Z,1010.11
2023-01-10T06:16:07.414Z,1010.08
2023-01-10T06:17:07.540Z,1010.06
2023-01-10T06:18:09.456Z,1010.08
2023-01-10T06:19:07.794Z,1010.05
2023-01-10T06:20:07.917Z,1010.06
2023-01-10T06:21:08.047Z,1010.05
2023-01-10T06:22:08.197Z,1010.06
2023-01-10T06:23:08.364Z,1010.06
2023-01-10T06:24:08.487Z,1010.04
2023-01-10T06:25:08.641Z,1010.05
2023-01-10T06:26:08.761Z,1010.08
2023-01-10T06:27:08.902Z,1010.07
2023-01-10T06:28:09.065Z,1010.01
2023-01-10T06:29:09.252Z,1009.99
2023-01-10T06:30:09.363Z,1010.06
2023-01-10T06:31:09.516Z,1010.10
2023-01-10T06:32:09.653Z,1010.18
2023-01-10T06:33:09.779Z,1010.25
2023-01-10T06:34:09.935Z,1010.23
2023-01-10T06:35:10.168Z,1010.33
2023-01-10T06:36:10.220Z,1010.39
2023-01-10T06:37:10.325Z,1010.42
2023-01-10T06:38:10.496Z,1010.46
2023-01-10T06:39:10.637Z,1010.54
2023-01-10T06:40:10.777Z,1010.49
2023-01-10T06:41:10.958Z,1010.50
2023-01-10T06:42:11.066Z,1010.50
2023-01-10T06:43:11.184Z,1010.51
2023-01-10T06:44:11.338Z,1010.54
2023-01-10T06:45:11.493Z,1010.62
2023-01-10T06:46:11.785Z,1010.57
2023-01-10T06:47:11.749Z,1010.58
2023-01-10T06:48:11.865Z,1010.53
2023-01-10T06:49:12.485Z,1010.45
2023-01-10T06:50:12.140Z,1010.52
2023-01-10T06:51:12.249Z,1010.54
2023-01-10T06:52:12.369Z,1010.50
2023-01-10T06:53:12.514Z,1010.52
2023-01-10T06:54:13.403Z,1010.55
2023-01-10T06:55:12.853Z,1010.70
2023-01-10T06:56:12.870Z,1010.78
2023-01-10T06:57:12.995Z,1010.81
2023-01-10T06:58:13.103Z,1010.88
2023-01-10T06:59:13.223Z,1010.85
2023-01-10T07:00:13.343Z,1010.89
2023-01-10T07:01:13.601Z,1010.87
2023-01-10T07:02:13.659Z,1010.80
2023-01-10T07:03:13.739Z,1010.79
2023-01-10T07:04:13.952Z,1010.76
2023-01-10T07:05:14.031Z,1010.74
2023-01-10T07:06:14.167Z,1010.72
2023-01-10T07:07:14.267Z,1010.73
2023-01-10T07:08:14.384Z,1010.80
2023-01-10T07:09:14.518Z,1010.86
2023-01-10T07:10:14.678Z,1010.85
2023-01-10T07:11:14.790Z,1010.85
2023-01-10T07:12:14.910Z,1010.77
2023-01-10T07:13:15.045Z,1010.77
2023-01-10T07:14:15.326Z,1010.73
2023-01-10T07:15:15.319Z,1010.71
2023-01-10T07:16:15.496Z,1010.71
2023-01-10T07:17:15.622Z,1010.76
2023-01-10T07:18:15.777Z,1010.76
2023-01-10T07:19:15.900Z,1010.83
2023-01-10T07:20:16.012Z,1010.84
2023-01-10T07:21:16.160Z,1010.75
2023-01-10T07:22:16.305Z,1010.80
2023-01-10T07:23:16.433Z,1010.86
2023-01-10T07:24:16.552Z,1010.84
2023-01-10T07:25:16.669Z,1010.88
2023-01-10T07:26:16.783Z,1010.98
2023-01-10T07:27:16.970Z,1010.92
2023-01-10T07:28:17.133Z,1010.86
2023-01-10T07:29:17.262Z,1010.96
2023-01-10T07:30:17.377Z,1010.98
2023-01-10T07:31:17.573Z,1010.95
2023-01-10T07:32:17.649Z,1011.04
2023-01-10T07:33:17.812Z,1011.12
2023-01-10T07:34:17.926Z,1011.15
2023-01-10T07:35:18.052Z,1011.03
2023-01-10T07:36:18.208Z,1011.03
2023-01-10T07:37:18.347Z,1011.10
2023-01-10T07:38:18.486Z,1010.98
2023-01-10T07:39:18.618Z,1011.04
2023-01-10T07:40:18.779Z,1011.05
2023-01-10T07:41:18.940Z,1011.12
2023-01-10T07:42:19.067Z,1011.06
2023-01-10T07:43:19.208Z,1011.08
2023-01-10T07:44:19.333Z,1011.13
2023-01-10T07:45:19.485Z,1011.14
2023-01-10T07:46:19.690Z,1011.20
2023-01-10T07:47:19.747Z,1011.14
2023-01-10T07:48:19.896Z,1011.11
2023-01-10T07:49:19.984Z,1011.17
2023-01-10T07:50:20.168Z,1011.14
2023-01-10T07:51:20.227Z,1011.17
2023-01-10T07:52:20.382Z,1011.16
2023-01-10T07:53:20.532Z,1011.14
2023-01-10T07:54:20.669Z,1011.17
2023-01-10T07:55:20.811Z,1011.16
2023-01-10T07:56:20.955Z,1011.14
2023-01-10T07:57:21.090Z,1011.21
2023-01-10T07:58:21.252Z,1011.26
2023-01-10T07:59:21.394Z,1011.23
2023-01-10T08:00:21.524Z,1011.35
2023-01-10T08:01:21.713Z,1011.39
2023-01-10T08:02:21.886Z,1011.38
2023-01-10T08:03:23.054Z,1011.35
2023-01-10T08:04:22.123Z,1011.46
2023-01-10T08:05:22.212Z,1011.43
2023-01-10T08:06:22.339Z,1011.43
2023-01-10T08:07:22.477Z,1011.50
2023-01-10T08:08:22.674Z,1011.50
2023-01-10T08:09:22.771Z,1011.53
2023-01-10T08:10:22.849Z,1011.55
2023-01-10T08:11:22.994Z,1011.56
2023-01-10T08:12:23.116Z,1011.57
2023-01-10T08:13:23.326Z,1011.56
2023-01-10T08:14:23.369Z,1011.60
2023-01-10T08:15:23.511Z,1011.60
2023-01-10T08:16:23.681Z,1011.57
2023-01-10T08:17:23.803Z,1011.59
2023-01-10T08:18:23.942Z,1011.54
2023-01-10T08:19:24.097Z,1011.59
2023-01-10T08:20:24.338Z,1011.62
2023-01-10T08:21:24.425Z,1011.68
2023-01-10T08:22:24.540Z,1011.61
2023-01-10T08:23:24.687Z,1011.67
2023-01-10T08:24:24.804Z,1011.60
2023-01-10T08:25:24.976Z,1011.64
2023-01-10T08:26:25.110Z,1011.63
2023-01-10T08:27:25.241Z,1011.54
2023-01-10T08:28:25.377Z,1011.61
2023-01-10T08:29:25.511Z,1011.56
2023-01-10T08:30:25.640Z,1011.58
2023-01-10T08:31:25.874Z,1011.66
2023-01-10T08:32:25.903Z,1011.59
2023-01-10T08:33:26.071Z,1011.63
2023-01-10T08:34:26.208Z,1011.71
2023-01-10T08:35:26.376Z,1011.72
2023-01-10T08:36:26.506Z,1011.75
2023-01-10T08:37:26.646Z,1011.70
2023-01-10T08:38:26.801Z,1011.70
2023-01-10T08:39:26.953Z,1011.69
2023-01-10T08:40:27.140Z,1011.63
2023-01-10T08:41:27.184Z,1011.64
2023-01-10T08:42:27.313Z,1011.65
2023-01-10T08:43:27.470Z,1011.71
2023-01-10T08:44:27.543Z,1011.75
2023-01-10T08:45:27.805Z,1011.74
2023-01-10T08:46:27.811Z,1011.74
2023-01-10T08:47:27.989Z,1011.75
2023-01-10T08:48:28.093Z,1011.85
2023-01-10T08:49:28.228Z,1011.85
2023-01-10T08:50:28.361Z,1011.87
2023-01-10T08:51:28.510Z,1011.86
2023-01-10T08:52:28.700Z,1011.82
2023-01-10T08:53:28.862Z,1011.87
2023-01-10T08:54:28.911Z,1011.91
2023-01-10T08:55:29.151Z,1011.89
2023-01-10T08:56:29.157Z,1011.80
2023-01-10T08:57:29.317Z,1011.85
2023-01-10T08:58:29.452Z,1011.84
2023-01-10T08:59:29.653Z,1011.92
2023-01-10T09:00:29.789Z,1011.91
2023-01-10T09:01:30.064Z,1011.92
2023-01-10T09:02:30.149Z,1011.91
2023-01-10T09:03:30.261Z,1011.92
2023-01-10T09:04:32.871Z,1011.83
2023-01-10T09:05:30.546Z,1011.87
2023-01-10T09:06:30.711Z,1011.82
2023-01-10T09:07:30.858Z,1011.84
2023-01-10T09:08:31.004Z,1011.87
2023-01-10T09:09:31.214Z,1011.78
2023-01-10T09:10:31.327Z,1011.76
2023-01-10T09:11:31.491Z,1011.82
2023-01-10T09:12:31.580Z,1011.88
2023-01-10T09:13:31.736Z,1011.88
2023-01-10T09:14:31.914Z,1011.85
2023-01-10T09:15:31.982Z,1011.89
2023-01-10T09:16:32.129Z,1011.86
2023-01-10T09:17:32.278Z,1011.84
2023-01-10T09:18:32.428Z,1011.86
2023-01-10T09:19:32.537Z,1011.92
2023-01-10T09:20:32.736Z,1011.91
2023-01-10T09:21:32.808Z,1011.86
2023-01-10T09:22:33.012Z,1012.01
2023-01-10T09:23:34.009Z,1012.02
2023-01-10T09:24:33.247Z,1011.95
2023-01-10T09:25:33.380Z,1011.92
2023-01-10T09:26:33.507Z,1011.95
2023-01-10T09:27:33.643Z,1011.97
2023-01-10T09:28:33.775Z,1011.97
2023-01-10T09:29:33.893Z,1011.92
2023-01-10T09:30:34.038Z,1011.94
2023-01-10T09:31:34.212Z,1011.89
2023-01-10T09:32:34.377Z,1011.92
2023-01-10T09:33:45.592Z,1011.94
2023-01-10T09:34:35.619Z,1011.96
2023-01-10T09:35:34.750Z,1011.91
2023-01-10T09:36:34.877Z,1011.93
2023-01-10T09:37:35.044Z,1012.01
2023-01-10T09:38:35.199Z,1011.98
2023-01-10T09:39:35.354Z,1012.00
2023-01-10T09:40:35.589Z,1012.04
2023-01-10T09:41:35.617Z,1012.05
2023-01-10T09:42:35.870Z,1012.03
2023-01-10T09:43:35.940Z,1012.11
2023-01-10T09:44:36.014Z,1012.06
2023-01-10T09:45:36.154Z,1012.13
2023-01-10T09:46:36.314Z,1012.01
2023-01-10T09:47:36.361Z,1012.07
2023-01-10T09:48:36.454Z,1012.11
2023-01-10T09:49:36.605Z,1012.17
2023-01-10T09:50:36.736Z,1012.11
2023-01-10T09:51:36.866Z,1012.09
2023-01-10T09:52:37.005Z,1012.16
2023-01-10T09:53:37.155Z,1012.13
2023-01-10T09:54:37.296Z,1012.08
2023-01-10T09:55:37.427Z,1012.16
2023-01-10T09:56:37.572Z,1012.24
2023-01-10T09:57:37.740Z,1012.25
2023-01-10T09:58:37.893Z,1012.23
2023-01-10T09:59:38.076Z,1012.27
2023-01-10T10:00:40.240Z,1012.17
2023-01-10T10:01:38.304Z,1012.13
2023-01-10T10:02:38.453Z,1012.10
2023-01-10T10:03:40.952Z,1012.23
2023-01-10T10:04:38.801Z,1012.15
2023-01-10T10:05:38.918Z,1012.19
2023-01-10T10:06:39.080Z,1012.10
2023-01-10T10:07:39.214Z,1012.22
2023-01-10T10:08:39.350Z,1012.10
2023-01-10T10:09:39.521Z,1012.09
2023-01-10T10:10:39.653Z,1012.07
2023-01-10T10:11:39.804Z,1012.07
2023-01-10T10:12:39.943Z,1012.11
2023-01-10T10:13:40.101Z,1012.07
2023-01-10T10:14:40.253Z,1012.05
2023-01-10T10:15:40.383Z,1012.05
2023-01-10T10:16:40.553Z,1012.06
2023-01-10T10:17:40.708Z,1012.04
2023-01-10T10:18:40.850Z,1012.03
2023-01-10T10:19:40.989Z,1011.96
2023-01-10T10:20:41.135Z,1011.89
2023-01-10T10:21:41.298Z,1011.90
2023-01-10T10:22:41.450Z,1011.93
2023-01-10T10:23:41.523Z,1011.91
2023-01-10T10:24:41.686Z,1011.79
2023-01-10T10:25:41.835Z,1011.84
2023-01-10T10:26:41.922Z,1011.90
2023-01-10T10:27:42.050Z,1011.88
2023-01-10T10:28:53.545Z,1011.88
2023-01-10T10:29:43.339Z,1011.86
2023-01-10T10:30:42.516Z,1011.86
2023-01-10T10:31:42.700Z,1011.85
2023-01-10T10:32:42.781Z,1011.88
2023-01-10T10:33:42.915Z,1011.82
2023-01-10T10:34:43.098Z,1011.83
2023-01-10T10:35:43.218Z,1011.88
2023-01-10T10:36:43.333Z,1011.88
2023-01-10T10:37:43.450Z,1011.88
2023-01-10T10:38:43.586Z,1011.91
2023-01-10T10:39:43.724Z,1011.84
2023-01-10T10:40:43.862Z,1011.93
2023-01-10T10:41:44.038Z,1011.88
2023-01-10T10:42:44.212Z,1011.91
2023-01-10T10:43:44.341Z,1011.86
2023-01-10T10:44:44.478Z,1011.90
2023-01-10T10:45:44.675Z,1011.94
2023-01-10T10:46:44.790Z,1011.90
2023-01-10T10:47:44.907Z,1011.92
2023-01-10T10:48:45.081Z,1011.90
2023-01-10T10:49:45.223Z,1011.85
2023-01-10T10:50:45.405Z,1011.89
2023-01-10T10:51:45.571Z,1011.86
2023-01-10T10:52:45.707Z,1011.93
2023-01-10T10:53:45.824Z,1011.84
2023-01-10T10:54:47.875Z,1011.78
2023-01-10T10:55:46.100Z,1011.81
2023-01-10T10:56:46.249Z,1011.83
2023-01-10T10:57:59.498Z,1011.83
2023-01-10T10:58:47.530Z,1011.75
2023-01-10T10:59:46.676Z,1011.74
2023-01-10T11:00:46.895Z,1011.76
2023-01-10T11:01:47.129Z,1011.73
2023-01-10T11:02:47.184Z,1011.74
2023-01-10T11:03:47.324Z,1011.69
2023-01-10T11:04:47.491Z,1011.60
2023-01-10T11:05:47.610Z,1011.75
2023-01-10T11:06:47.782Z,1011.75
2023-01-10T11:07:47.851Z,1011.70
2023-01-10T11:08:47.980Z,1011.67
2023-01-10T11:09:48.099Z,1011.65
2023-01-10T11:10:48.237Z,1011.71
2023-01-10T11:11:48.467Z,1011.74
2023-01-10T11:12:48.569Z,1011.66
2023-01-10T11:13:48.687Z,1011.65
2023-01-10T11:14:48.853Z,1011.72
2023-01-10T11:15:48.989Z,1011.69
2023-01-10T11:16:49.162Z,1011.66
2023-01-10T11:17:49.240Z,1011.63
2023-01-10T11:18:49.392Z,1011.57
2023-01-10T11:19:49.529Z,1011.55
2023-01-10T11:20:49.659Z,1011.60
2023-01-10T11:21:49.806Z,1011.58
2023-01-10T11:22:49.940Z,1011.52
2023-01-10T11:23:50.337Z,1011.65
2023-01-10T11:24:50.204Z,1011.66
2023-01-10T11:25:50.335Z,1011.58
2023-01-10T11:26:50.480Z,1011.56
2023-01-10T11:27:50.637Z,1011.62
2023-01-10T11:28:50.788Z,1011.67
2023-01-10T11:29:50.953Z,1011.62
2023-01-10T11:30:51.058Z,1011.54
2023-01-10T11:31:51.246Z,1011.63
2023-01-10T11:32:51.335Z,1011.67
2023-01-10T11:33:59.075Z,1011.61
2023-01-10T11:34:51.605Z,1011.60
2023-01-10T11:35:51.758Z,1011.62
2023-01-10T11:36:51.910Z,1011.62
2023-01-10T11:37:52.035Z,1011.58
2023-01-10T11:38:52.203Z,1011.61
2023-01-10T11:39:52.331Z,1011.63
2023-01-10T11:40:52.635Z,1011.64
2023-01-10T11:41:52.563Z,1011.66
2023-01-10T11:42:52.715Z,1011.63
2023-01-10T11:43:52.857Z,1011.69
2023-01-10T11:44:53.004Z,1011.66
2023-01-10T11:45:53.154Z,1011.58
2023-01-10T11:46:53.270Z,1011.54
2023-01-10T11:47:53.361Z,1011.60
2023-01-10T11:49:05.515Z,1011.51
2023-01-10T11:49:54.610Z,1011.57
2023-01-10T11:50:53.758Z,1011.49
2023-01-10T11:51:53.949Z,1011.43
2023-01-10T11:52:53.990Z,1011.49
2023-01-10T11:53:54.121Z,1011.47
2023-01-10T11:54:54.243Z,1011.45
2023-01-10T11:55:57.054Z,1011.45
2023-01-10T11:56:54.543Z,1011.40
2023-01-10T11:57:54.660Z,1011.43
2023-01-10T11:58:54.853Z,1011.36
2023-01-10T11:59:54.936Z,1011.34
2023-01-10T12:00:56.902Z,1011.41
2023-01-10T12:01:55.301Z,1011.35
2023-01-10T12:02:55.393Z,1011.36
2023-01-10T12:03:55.541Z,1011.34
2023-01-10T12:04:55.761Z,1011.36
2023-01-10T12:05:55.842Z,1011.34
2023-01-10T12:06:56.056Z,1011.26
2023-01-10T12:07:56.146Z,1011.45